Time;durP1;ratioP1;P1;durP2;ratioP2;P2;SDS_P1;SDS_P2;PMS_P1;PMS_P2;Temp;Humidity;BMP_temperature;BMP_pressure;BME280_temperature;BME280_humidity;BME280_pressure;Samples;Min_cycle;Max_cycle;Signal;HPM_P1;HPM_P2
2021/11/30 00:00:55;;;;;;;9.18;4.38;;;-0.50;98.00;;;;;;4999428;28;20053;-76
2021/11/30 00:03:21;;;;;;;7.13;4.15;;;-0.50;98.00;;;;;;4997175;28;20022;-77
2021/11/30 00:05:47;;;;;;;9.10;4.75;;;-0.50;98.00;;;;;;5029631;28;20034;-77
2021/11/30 00:08:15;;;;;;;7.22;4.60;;;-0.50;98.00;;;;;;5011164;28;20121;-77
2021/11/30 00:10:44;;;;;;;8.73;4.60;;;-0.50;98.00;;;;;;5003316;28;20033;-76
2021/11/30 00:13:15;;;;;;;8.52;4.88;;;-0.50;98.00;;;;;;5007222;28;20112;-77
2021/11/30 00:15:41;;;;;;;7.72;4.60;;;-0.50;98.00;;;;;;5000851;28;20033;-76
2021/11/30 00:18:08;;;;;;;11.27;5.15;;;-0.50;98.00;;;;;;5005164;28;20546;-77
2021/11/30 00:20:35;;;;;;;8.30;5.38;;;-0.60;98.00;;;;;;5011800;28;20109;-77
2021/11/30 00:23:01;;;;;;;9.80;5.43;;;-0.60;98.00;;;;;;5004401;28;20022;-76
2021/11/30 00:25:27;;;;;;;7.05;4.38;;;-0.60;98.00;;;;;;5009095;28;20042;-77
2021/11/30 00:27:53;;;;;;;7.50;4.80;;;-0.60;98.00;;;;;;5013462;28;20049;-76
2021/11/30 00:30:22;;;;;;;7.60;4.70;;;-0.60;98.00;;;;;;5011493;28;20034;-75
2021/11/30 00:32:49;;;;;;;7.53;4.20;;;-0.60;98.00;;;;;;5000779;28;20026;-75
2021/11/30 00:35:15;;;;;;;7.80;4.55;;;-0.60;98.00;;;;;;5002364;28;20041;-76
2021/11/30 00:37:41;;;;;;;9.30;4.50;;;-0.60;98.00;;;;;;5013738;28;20033;-75
2021/11/30 00:40:07;;;;;;;10.13;4.50;;;-0.60;98.00;;;;;;5003069;28;20030;-77
2021/11/30 00:42:34;;;;;;;6.72;4.40;;;-0.60;98.00;;;;;;4998663;28;20033;-76
2021/11/30 00:45:01;;;;;;;7.90;4.47;;;-0.60;98.00;;;;;;5003842;28;20109;-77
2021/11/30 00:47:30;;;;;;;7.53;5.07;;;-0.50;98.00;;;;;;5011747;28;20439;-77
2021/11/30 00:49:59;;;;;;;7.38;4.55;;;-0.60;98.00;;;;;;5003325;28;20026;-76
2021/11/30 00:52:25;;;;;;;8.32;5.40;;;-0.50;98.00;;;;;;5011557;28;20434;-76
2021/11/30 00:54:53;;;;;;;7.78;4.40;;;-0.50;98.00;;;;;;5008144;28;20037;-77
2021/11/30 00:57:20;;;;;;;8.05;5.10;;;-0.50;98.00;;;;;;5010849;28;20033;-75
2021/11/30 00:59:46;;;;;;;7.38;4.20;;;-0.50;98.00;;;;;;5012435;28;20029;-76
2021/11/30 01:02:12;;;;;;;9.00;5.20;;;-0.50;98.00;;;;;;5012898;28;20052;-76
2021/11/30 01:04:38;;;;;;;7.53;4.70;;;-0.50;98.00;;;;;;5015215;28;20438;-76
2021/11/30 01:07:04;;;;;;;8.38;4.70;;;-0.40;98.00;;;;;;5014889;28;20040;-76
2021/11/30 01:09:30;;;;;;;6.82;4.85;;;-0.50;98.00;;;;;;5012753;28;20022;-76
2021/11/30 01:11:56;;;;;;;7.50;4.57;;;-0.40;98.00;;;;;;5013787;28;20026;-76
2021/11/30 01:14:22;;;;;;;8.45;4.75;;;-0.40;98.00;;;;;;5014633;28;20105;-76
2021/11/30 01:16:48;;;;;;;6.45;4.47;;;-0.40;98.00;;;;;;5010078;28;20029;-76
2021/11/30 01:19:14;;;;;;;10.07;5.70;;;-0.40;98.00;;;;;;5002876;28;20156;-76
2021/11/30 01:21:41;;;;;;;10.73;5.50;;;-0.40;98.00;;;;;;5001531;28;20042;-76
2021/11/30 01:24:08;;;;;;;7.13;4.68;;;-0.40;98.00;;;;;;5008354;28;20034;-76
2021/11/30 01:26:34;;;;;;;7.07;4.68;;;-0.40;98.00;;;;;;5005422;28;20053;-76
2021/11/30 01:29:00;;;;;;;7.88;4.90;;;-0.40;98.00;;;;;;5010762;28;20152;-76
2021/11/30 01:31:26;;;;;;;8.57;4.93;;;-0.40;98.00;;;;;;5004873;28;20105;-76
2021/11/30 01:33:52;;;;;;;7.00;4.97;;;-0.40;98.00;;;;;;5007325;28;20044;-76
2021/11/30 01:36:18;;;;;;;8.30;4.88;;;-0.40;98.00;;;;;;5022477;28;20499;-77
2021/11/30 01:38:44;;;;;;;7.75;4.93;;;-0.40;98.00;;;;;;5011096;28;20026;-77
2021/11/30 01:41:11;;;;;;;7.72;4.75;;;-0.40;98.00;;;;;;5001704;28;20343;-77
2021/11/30 01:43:44;;;;;;;9.98;5.35;;;-0.40;98.00;;;;;;5005446;28;20101;-77
2021/11/30 01:46:26;;;;;;;9.57;5.35;;;-0.40;98.00;;;;;;5006267;28;20022;-77
2021/11/30 01:49:19;;;;;;;10.07;5.97;;;-0.40;98.00;;;;;;5002114;28;20030;-77
2021/11/30 01:51:45;;;;;;;11.63;5.18;;;-0.30;98.00;;;;;;5003968;28;20030;-75
2021/11/30 01:54:10;;;;;;;8.77;4.80;;;-0.30;98.00;;;;;;5004936;28;20770;-77
2021/11/30 01:56:36;;;;;;;8.75;4.88;;;-0.30;98.00;;;;;;5006160;28;20045;-77
2021/11/30 01:59:03;;;;;;;9.48;5.18;;;-0.30;98.00;;;;;;5004254;28;20424;-76
2021/11/30 02:01:29;;;;;;;7.82;4.95;;;-0.30;98.00;;;;;;5006951;28;20026;-76
2021/11/30 02:03:55;;;;;;;7.88;4.95;;;-0.30;98.00;;;;;;5005159;28;20032;-77
2021/11/30 02:06:20;;;;;;;8.90;4.75;;;-0.40;98.00;;;;;;5003450;28;20301;-75
2021/11/30 02:08:46;;;;;;;8.02;4.95;;;-0.30;98.00;;;;;;5008343;28;20014;-77
2021/11/30 02:11:12;;;;;;;8.88;4.90;;;-0.30;98.00;;;;;;5002893;28;20037;-77
2021/11/30 02:13:38;;;;;;;7.47;4.93;;;-0.30;98.00;;;;;;5007882;28;20026;-76
2021/11/30 02:16:06;;;;;;;11.45;6.15;;;-0.30;98.00;;;;;;5004244;28;20116;-77
2021/11/30 02:18:32;;;;;;;6.57;4.07;;;-0.30;98.00;;;;;;5005931;28;20022;-75
2021/11/30 02:21:02;;;;;;;11.77;5.57;;;-0.30;98.00;;;;;;5020378;28;20030;-77
2021/11/30 02:25:59;;;;;;;11.07;5.15;;;-0.40;98.00;;;;;;5006499;28;20049;-76
2021/11/30 02:28:25;;;;;;;10.52;4.97;;;-0.30;98.00;;;;;;5005607;28;20111;-76
2021/11/30 02:30:51;;;;;;;11.93;4.95;;;-0.30;98.00;;;;;;5001352;28;20061;-76
2021/11/30 02:33:17;;;;;;;9.98;4.80;;;-0.30;98.00;;;;;;5004132;28;20029;-77
2021/11/30 02:35:43;;;;;;;15.55;6.40;;;-0.30;98.00;;;;;;5006072;28;20038;-77
2021/11/30 02:38:09;;;;;;;9.60;5.53;;;-0.40;98.00;;;;;;5005654;28;20117;-77
2021/11/30 02:40:36;;;;;;;13.40;4.90;;;-0.40;98.00;;;;;;5005077;28;20033;-77
2021/11/30 02:43:02;;;;;;;11.55;6.30;;;-0.40;98.00;;;;;;5007155;28;20019;-77
2021/11/30 02:45:28;;;;;;;9.82;4.97;;;-0.40;98.00;;;;;;5006793;28;20315;-77
2021/11/30 02:47:54;;;;;;;6.80;4.57;;;-0.40;98.00;;;;;;5005929;28;20041;-76
2021/11/30 02:50:20;;;;;;;10.77;6.30;;;-0.50;98.00;;;;;;5007493;28;20037;-76
2021/11/30 02:52:46;;;;;;;8.68;4.68;;;-0.60;98.00;;;;;;5005965;28;20031;-77
2021/11/30 02:55:11;;;;;;;8.10;4.35;;;-0.60;98.00;;;;;;5006347;28;20439;-77
2021/11/30 02:57:37;;;;;;;9.25;4.65;;;-0.60;98.00;;;;;;5010118;28;20029;-76
2021/11/30 03:00:06;;;;;;;7.05;4.28;;;-0.50;98.00;;;;;;5007694;28;20030;-76
2021/11/30 03:02:32;;;;;;;8.55;5.30;;;-0.50;98.00;;;;;;5011460;28;20025;-76
2021/11/30 03:05:00;;;;;;;12.52;4.80;;;-0.50;98.00;;;;;;5009345;28;20025;-76
2021/11/30 03:07:29;;;;;;;8.60;3.80;;;-0.50;98.00;;;;;;5007923;28;20041;-77
2021/11/30 03:09:58;;;;;;;8.32;3.90;;;-0.50;98.00;;;;;;5010867;28;20025;-76
2021/11/30 03:12:23;;;;;;;10.02;4.13;;;-0.40;98.00;;;;;;5009141;28;20121;-76
2021/11/30 03:14:50;;;;;;;11.38;4.10;;;-0.40;98.00;;;;;;5008219;28;20426;-76
2021/11/30 03:17:17;;;;;;;9.23;5.15;;;-0.30;98.00;;;;;;5007733;28;20062;-77
2021/11/30 03:19:42;;;;;;;5.95;3.33;;;-0.30;98.00;;;;;;5010992;28;20041;-77
2021/11/30 03:22:09;;;;;;;8.20;3.60;;;-0.20;98.00;;;;;;5008603;28;20030;-76
2021/11/30 03:24:35;;;;;;;12.30;3.25;;;-0.20;98.00;;;;;;5008400;28;20026;-76
2021/11/30 03:27:01;;;;;;;6.18;3.20;;;-0.20;98.00;;;;;;5008460;28;20030;-75
2021/11/30 03:29:27;;;;;;;5.72;3.38;;;-0.20;98.00;;;;;;5006798;28;20030;-75
2021/11/30 03:32:06;;;;;;;6.07;3.03;;;-0.20;98.00;;;;;;5002773;28;20324;-75
2021/11/30 03:34:34;;;;;;;6.45;3.10;;;-0.20;98.00;;;;;;5006875;28;20430;-77
2021/11/30 03:37:01;;;;;;;8.38;3.05;;;-0.20;98.00;;;;;;5006756;28;20085;-77
2021/11/30 03:39:27;;;;;;;10.45;3.17;;;-0.20;98.00;;;;;;5008553;28;20029;-77
2021/11/30 03:41:58;;;;;;;8.85;3.20;;;-0.20;98.00;;;;;;5008072;28;20109;-77
2021/11/30 03:44:28;;;;;;;6.18;3.10;;;-0.20;98.00;;;;;;5008411;28;20017;-76
2021/11/30 03:46:54;;;;;;;6.05;3.35;;;-0.20;98.00;;;;;;5009104;28;20030;-75
2021/11/30 03:49:20;;;;;;;4.70;2.78;;;-0.20;98.00;;;;;;5007726;28;20398;-77
2021/11/30 03:51:49;;;;;;;5.38;2.85;;;-0.20;98.00;;;;;;5008675;28;20050;-76
2021/11/30 03:54:17;;;;;;;6.10;2.88;;;-0.20;98.00;;;;;;5004847;28;20443;-76
2021/11/30 03:56:42;;;;;;;5.45;2.95;;;-0.20;98.00;;;;;;5005375;28;20033;-76
2021/11/30 03:59:08;;;;;;;7.53;3.10;;;-0.30;98.00;;;;;;5007182;28;20030;-76
2021/11/30 04:01:34;;;;;;;6.53;3.50;;;-0.20;98.00;;;;;;5004827;28;20303;-77
2021/11/30 04:04:01;;;;;;;8.93;3.20;;;-0.20;98.00;;;;;;5003555;28;20037;-76
2021/11/30 04:06:26;;;;;;;5.57;2.55;;;-0.20;98.00;;;;;;5005839;28;20113;-76
2021/11/30 04:08:52;;;;;;;6.78;3.17;;;-0.20;98.00;;;;;;5004823;28;20018;-77
2021/11/30 04:11:21;;;;;;;7.10;3.17;;;-0.10;98.00;;;;;;5009754;28;20034;-77
2021/11/30 04:13:47;;;;;;;9.60;2.50;;;-0.10;98.00;;;;;;5007806;28;20176;-76
2021/11/30 04:16:13;;;;;;;5.88;2.55;;;-0.10;98.00;;;;;;5010094;28;20052;-76
2021/11/30 04:18:39;;;;;;;9.45;2.70;;;0.00;98.00;;;;;;5008209;28;20423;-76
2021/11/30 04:21:05;;;;;;;10.70;3.63;;;0.10;98.00;;;;;;5007722;28;20200;-77
2021/11/30 04:23:33;;;;;;;6.97;2.53;;;0.00;98.00;;;;;;5000039;28;20427;-76
2021/11/30 04:25:58;;;;;;;5.47;2.40;;;0.10;98.00;;;;;;5005554;28;20458;-76
2021/11/30 04:28:25;;;;;;;6.72;2.58;;;0.10;97.90;;;;;;4998734;28;20026;-75
2021/11/30 04:30:51;;;;;;;5.10;2.63;;;0.10;97.30;;;;;;5008509;28;20057;-77
2021/11/30 04:33:17;;;;;;;7.15;2.83;;;0.10;97.70;;;;;;5007659;28;20026;-77
2021/11/30 04:35:42;;;;;;;9.75;3.40;;;0.10;97.40;;;;;;5010292;28;20080;-76
2021/11/30 04:38:08;;;;;;;6.47;3.03;;;0.10;97.40;;;;;;5012251;28;20038;-76
2021/11/30 04:40:34;;;;;;;8.20;3.42;;;0.00;97.60;;;;;;5007877;28;20374;-76
2021/11/30 04:43:01;;;;;;;9.75;4.38;;;0.00;97.70;;;;;;5009500;28;20026;-77
2021/11/30 04:45:31;;;;;;;7.55;3.20;;;0.00;97.70;;;;;;5010623;28;20362;-77
2021/11/30 04:47:57;;;;;;;9.18;3.65;;;0.00;97.60;;;;;;5011740;28;20021;-77
2021/11/30 04:50:27;;;;;;;6.35;2.80;;;0.00;97.50;;;;;;5011126;28;20408;-77
2021/11/30 04:52:55;;;;;;;9.95;2.78;;;0.00;97.50;;;;;;5009333;28;20450;-76
2021/11/30 04:55:22;;;;;;;8.13;3.08;;;0.00;97.30;;;;;;5004041;28;20030;-77
2021/11/30 04:57:53;;;;;;;7.13;2.53;;;0.00;97.20;;;;;;5010823;28;20033;-77
2021/11/30 05:00:20;;;;;;;7.10;2.75;;;0.00;97.40;;;;;;5008192;28;20384;-75
2021/11/30 05:02:46;;;;;;;8.60;2.75;;;0.00;97.30;;;;;;5011806;28;20025;-77
2021/11/30 05:05:13;;;;;;;6.57;2.50;;;0.00;97.10;;;;;;5025964;28;20431;-77
2021/11/30 05:07:42;;;;;;;5.85;2.78;;;0.00;97.20;;;;;;5011062;28;20443;-77
2021/11/30 05:10:09;;;;;;;5.35;2.85;;;0.00;97.10;;;;;;5008138;28;20058;-77
2021/11/30 05:12:35;;;;;;;8.95;3.17;;;0.00;97.10;;;;;;5009817;28;20060;-77
2021/11/30 05:15:03;;;;;;;6.28;2.90;;;0.00;96.90;;;;;;5008277;28;20033;-76
2021/11/30 05:17:29;;;;;;;6.38;2.85;;;0.10;96.40;;;;;;5010133;28;20371;-76
2021/11/30 05:19:54;;;;;;;5.13;2.38;;;0.10;96.30;;;;;;5009595;28;20152;-77
2021/11/30 05:22:20;;;;;;;6.30;2.53;;;0.10;96.30;;;;;;5010442;28;20022;-75
2021/11/30 05:24:46;;;;;;;5.68;2.53;;;0.10;96.10;;;;;;5008510;28;20272;-76
2021/11/30 05:27:11;;;;;;;6.32;3.00;;;0.10;96.10;;;;;;5012469;28;20444;-77
2021/11/30 05:29:37;;;;;;;5.35;2.70;;;0.10;95.90;;;;;;5009089;28;20033;-77
2021/11/30 05:32:03;;;;;;;6.20;3.03;;;0.10;96.00;;;;;;5008209;28;20435;-77
2021/11/30 05:34:31;;;;;;;6.47;2.92;;;0.10;95.90;;;;;;4999214;28;20443;-83
2021/11/30 05:36:57;;;;;;;9.93;3.20;;;0.10;96.10;;;;;;5008704;28;20033;-76
2021/11/30 05:39:23;;;;;;;7.57;2.97;;;0.10;96.10;;;;;;5004971;28;20266;-77
2021/11/30 05:41:49;;;;;;;5.20;2.70;;;0.10;96.20;;;;;;5008206;28;20120;-74
2021/11/30 05:44:16;;;;;;;5.00;2.70;;;0.10;96.20;;;;;;5005793;28;20025;-76
2021/11/30 05:46:46;;;;;;;5.90;2.70;;;0.00;96.50;;;;;;5005798;28;20030;-76
2021/11/30 05:49:11;;;;;;;4.40;2.65;;;0.10;96.10;;;;;;5003028;28;20022;-75
2021/11/30 05:51:37;;;;;;;7.35;2.95;;;0.10;96.20;;;;;;5003916;28;20440;-76
2021/11/30 05:54:03;;;;;;;6.72;3.20;;;0.10;96.20;;;;;;5007243;28;20057;-76
2021/11/30 05:56:29;;;;;;;5.57;2.95;;;0.10;96.50;;;;;;5012066;28;20292;-76
2021/11/30 05:58:55;;;;;;;7.25;3.08;;;0.10;96.40;;;;;;5010883;28;20026;-76
2021/11/30 06:01:27;;;;;;;5.53;2.85;;;0.20;96.20;;;;;;5012777;28;20488;-76
2021/11/30 06:03:58;;;;;;;6.90;3.13;;;0.10;96.30;;;;;;5005203;28;20022;-75
2021/11/30 06:06:26;;;;;;;5.63;3.10;;;0.10;96.20;;;;;;5014601;28;20088;-76
2021/11/30 06:08:52;;;;;;;4.85;2.80;;;0.20;95.70;;;;;;5007535;28;20033;-76
2021/11/30 06:11:18;;;;;;;6.15;3.30;;;0.30;95.30;;;;;;5006287;28;20056;-76
2021/11/30 06:13:44;;;;;;;5.90;3.13;;;0.30;95.40;;;;;;5006727;28;20084;-76
2021/11/30 06:16:10;;;;;;;6.05;2.90;;;0.20;95.50;;;;;;4996235;28;20028;-75
2021/11/30 06:18:35;;;;;;;5.90;2.80;;;0.20;95.70;;;;;;5012653;28;20121;-74
2021/11/30 06:21:01;;;;;;;5.40;2.60;;;0.20;95.70;;;;;;5014103;28;20026;-74
2021/11/30 06:23:27;;;;;;;6.35;2.97;;;0.20;96.00;;;;;;5010120;28;20026;-74
2021/11/30 06:25:53;;;;;;;7.20;3.42;;;0.20;95.80;;;;;;5013138;28;20465;-75
2021/11/30 06:28:18;;;;;;;5.43;2.72;;;0.20;95.60;;;;;;5014564;28;20037;-76
2021/11/30 06:30:45;;;;;;;7.18;3.80;;;0.20;95.90;;;;;;5017978;28;20022;-76
2021/11/30 06:33:11;;;;;;;9.63;2.88;;;0.20;95.90;;;;;;5017865;28;20032;-76
2021/11/30 06:35:37;;;;;;;4.60;2.75;;;0.20;95.70;;;;;;5017171;28;20025;-76
2021/11/30 06:38:03;;;;;;;11.43;4.15;;;0.20;95.50;;;;;;5010046;28;20030;-76
2021/11/30 06:40:29;;;;;;;5.70;3.10;;;0.20;95.80;;;;;;5011274;28;20033;-76
2021/11/30 06:42:55;;;;;;;7.13;3.53;;;0.20;96.10;;;;;;5011745;28;20030;-76
2021/11/30 06:45:21;;;;;;;8.05;2.92;;;0.20;96.30;;;;;;5011020;28;20026;-75
2021/11/30 06:47:46;;;;;;;7.25;3.30;;;0.10;96.60;;;;;;5012930;28;20107;-75
2021/11/30 06:50:13;;;;;;;7.38;3.00;;;0.10;97.00;;;;;;5016361;28;20113;-75
2021/11/30 06:52:39;;;;;;;7.72;3.00;;;0.10;97.70;;;;;;5012919;28;20045;-75
2021/11/30 06:55:09;;;;;;;6.35;2.72;;;0.10;97.90;;;;;;5008853;28;20117;-74
2021/11/30 06:57:35;;;;;;;6.97;2.65;;;0.10;98.00;;;;;;5004442;28;20064;-75
2021/11/30 07:00:05;;;;;;;7.53;2.92;;;0.00;98.00;;;;;;5017081;28;20322;-76
2021/11/30 07:02:33;;;;;;;6.85;2.95;;;0.10;97.70;;;;;;5016814;28;20061;-76
2021/11/30 07:05:05;;;;;;;4.68;2.78;;;0.10;97.80;;;;;;5018304;28;20030;-75
2021/11/30 07:07:39;;;;;;;7.05;2.90;;;0.10;98.00;;;;;;5018678;28;20292;-75
2021/11/30 07:15:06;;;;;;;9.68;2.92;;;0.10;98.00;;;;;;5018397;28;20088;-74
2021/11/30 07:17:31;;;;;;;5.38;2.75;;;0.10;98.00;;;;;;5017038;28;20026;-75
2021/11/30 07:19:58;;;;;;;6.22;2.60;;;0.00;98.00;;;;;;5017235;28;20022;-76
2021/11/30 07:22:24;;;;;;;12.40;2.70;;;0.10;98.00;;;;;;5015136;28;20030;-75
2021/11/30 07:24:50;;;;;;;4.05;2.25;;;0.10;98.00;;;;;;5016931;28;20372;-76
2021/11/30 07:27:16;;;;;;;15.40;3.15;;;0.10;98.00;;;;;;5017161;28;20061;-75
2021/11/30 07:29:42;;;;;;;8.75;2.60;;;0.20;97.80;;;;;;5033103;28;20022;-75
2021/11/30 07:32:08;;;;;;;3.20;1.80;;;0.20;97.60;;;;;;5017361;28;20108;-75
2021/11/30 07:34:34;;;;;;;6.10;2.60;;;0.30;97.00;;;;;;5017047;28;20029;-76
2021/11/30 07:37:00;;;;;;;3.60;1.90;;;0.40;96.50;;;;;;5017765;28;20022;-76
2021/11/30 07:39:26;;;;;;;4.32;1.80;;;0.50;96.30;;;;;;5016234;28;20029;-76
2021/11/30 07:41:52;;;;;;;3.95;1.90;;;0.50;95.10;;;;;;5013051;28;20029;-76
2021/11/30 07:44:18;;;;;;;3.95;2.42;;;0.60;94.00;;;;;;4997143;28;20022;-76
2021/11/30 07:46:44;;;;;;;6.28;2.10;;;0.60;94.30;;;;;;4997181;28;20407;-76
2021/11/30 07:49:10;;;;;;;5.22;1.88;;;0.60;93.70;;;;;;4998221;28;20297;-76
2021/11/30 07:51:35;;;;;;;6.38;2.53;;;0.70;93.80;;;;;;4999678;28;20058;-76
2021/11/30 07:54:01;;;;;;;4.90;2.00;;;0.70;94.20;;;;;;5016492;28;20484;-76
2021/11/30 07:56:27;;;;;;;6.43;2.25;;;0.70;93.40;;;;;;5017645;28;20018;-76
2021/11/30 07:58:53;;;;;;;4.30;2.15;;;0.70;93.40;;;;;;5016085;28;20380;-75
2021/11/30 08:01:18;;;;;;;3.42;2.00;;;0.70;94.00;;;;;;5017545;28;20481;-75
2021/11/30 08:03:45;;;;;;;6.30;2.75;;;0.80;93.20;;;;;;5016953;28;20474;-75
2021/11/30 08:06:11;;;;;;;3.83;2.05;;;0.80;93.10;;;;;;5017139;28;20022;-76
2021/11/30 08:08:37;;;;;;;4.30;2.08;;;0.80;93.70;;;;;;5015340;28;20029;-75
2021/11/30 08:11:04;;;;;;;4.07;1.73;;;0.80;93.90;;;;;;5016328;28;20332;-76
2021/11/30 08:13:30;;;;;;;4.88;2.08;;;0.80;93.80;;;;;;5015235;28;20443;-74
2021/11/30 08:15:56;;;;;;;3.97;1.83;;;0.90;93.70;;;;;;5017369;28;20037;-76
2021/11/30 08:18:22;;;;;;;6.90;2.72;;;0.90;93.30;;;;;;5015889;28;20161;-76
2021/11/30 08:20:48;;;;;;;3.88;1.85;;;1.00;93.60;;;;;;5017120;28;20058;-75
2021/11/30 08:23:14;;;;;;;2.97;1.77;;;1.00;93.50;;;;;;5007788;28;20034;-75
2021/11/30 08:25:42;;;;;;;2.97;1.80;;;1.00;93.50;;;;;;4997085;28;20050;-76
2021/11/30 08:28:08;;;;;;;5.25;2.22;;;1.00;94.00;;;;;;5016992;28;20029;-75
2021/11/30 08:30:34;;;;;;;4.70;2.40;;;1.00;94.00;;;;;;5016755;28;20034;-76
2021/11/30 08:33:00;;;;;;;3.40;1.92;;;1.10;94.20;;;;;;5017093;28;20034;-76
2021/11/30 08:35:26;;;;;;;5.15;2.20;;;1.10;94.30;;;;;;5015760;28;20026;-76
2021/11/30 08:37:51;;;;;;;2.47;1.60;;;1.10;94.00;;;;;;5016435;28;20053;-75
2021/11/30 08:40:17;;;;;;;5.22;2.38;;;1.10;93.70;;;;;;5014161;28;20105;-76
2021/11/30 08:42:43;;;;;;;3.55;1.90;;;1.20;94.10;;;;;;5016523;28;20022;-76
2021/11/30 08:45:10;;;;;;;7.30;2.35;;;1.20;94.10;;;;;;5016816;28;20026;-76
2021/11/30 08:47:37;;;;;;;5.45;2.15;;;1.20;94.00;;;;;;5016762;28;20365;-76
2021/11/30 08:50:07;;;;;;;4.47;2.45;;;1.20;94.30;;;;;;5015496;28;20109;-75
2021/11/30 08:52:33;;;;;;;4.70;1.92;;;1.20;93.90;;;;;;5016304;28;20175;-76
2021/11/30 08:54:59;;;;;;;4.55;2.17;;;1.20;94.30;;;;;;5015297;28;20458;-76
2021/11/30 08:57:26;;;;;;;5.05;2.00;;;1.20;94.20;;;;;;5016340;28;20106;-76
2021/11/30 08:59:53;;;;;;;5.13;2.15;;;1.30;94.10;;;;;;5015849;28;20022;-76
2021/11/30 09:02:20;;;;;;;3.78;2.20;;;1.40;93.90;;;;;;5013339;28;20116;-76
2021/11/30 09:04:46;;;;;;;3.40;2.00;;;1.40;94.00;;;;;;4996803;28;20022;-76
2021/11/30 09:07:15;;;;;;;3.50;1.80;;;1.40;94.40;;;;;;5011672;28;20021;-76
2021/11/30 09:09:40;;;;;;;4.55;1.80;;;1.50;94.00;;;;;;5015260;28;20038;-76
2021/11/30 09:12:07;;;;;;;5.85;2.08;;;1.50;93.80;;;;;;5015110;28;20030;-75
2021/11/30 09:14:32;;;;;;;3.90;1.60;;;1.50;93.80;;;;;;5016181;28;20037;-75
2021/11/30 09:16:58;;;;;;;3.42;2.00;;;1.50;93.60;;;;;;5003380;28;20030;-74
2021/11/30 09:19:24;;;;;;;2.75;1.60;;;1.60;93.80;;;;;;5010205;28;20029;-74
2021/11/30 09:21:50;;;;;;;4.70;1.77;;;1.70;93.40;;;;;;5016145;28;20323;-74
2021/11/30 09:24:16;;;;;;;3.67;1.60;;;1.70;93.60;;;;;;5014925;28;20109;-76
2021/11/30 09:26:42;;;;;;;4.93;1.75;;;1.80;93.10;;;;;;5009091;28;20121;-76
2021/11/30 09:29:09;;;;;;;4.18;1.90;;;1.80;93.40;;;;;;4996484;28;20296;-75
2021/11/30 09:31:34;;;;;;;3.90;1.70;;;1.80;93.30;;;;;;4996349;28;20096;-75
2021/11/30 09:34:02;;;;;;;3.42;1.65;;;2.00;93.80;;;;;;4995280;28;20027;-77
2021/11/30 09:36:31;;;;;;;3.40;1.77;;;2.00;93.00;;;;;;5004228;28;20025;-76
2021/11/30 09:38:57;;;;;;;4.47;1.85;;;1.90;93.40;;;;;;5014543;28;20050;-75
2021/11/30 09:41:23;;;;;;;4.65;1.60;;;1.90;93.90;;;;;;5015862;28;20022;-75
2021/11/30 09:43:50;;;;;;;2.90;1.70;;;1.90;94.10;;;;;;5015914;28;20319;-76
2021/11/30 09:46:15;;;;;;;3.67;1.63;;;1.90;94.00;;;;;;5008546;28;20031;-77
2021/11/30 09:48:41;;;;;;;5.13;1.75;;;1.90;94.10;;;;;;5006622;28;20025;-76
2021/11/30 09:51:07;;;;;;;4.30;1.80;;;1.90;94.10;;;;;;5015849;28;20022;-77
2021/11/30 09:53:33;;;;;;;4.57;2.10;;;1.90;94.40;;;;;;5014681;28;20030;-76
2021/11/30 09:56:00;;;;;;;3.85;1.70;;;1.90;94.40;;;;;;5014635;28;20052;-76
2021/11/30 09:58:27;;;;;;;3.08;1.40;;;2.00;94.30;;;;;;5014187;28;20026;-76
2021/11/30 10:00:56;;;;;;;3.50;1.63;;;2.10;94.10;;;;;;5015492;28;20026;-76
2021/11/30 10:03:24;;;;;;;4.07;1.70;;;2.10;93.90;;;;;;5016808;28;20048;-76
2021/11/30 10:05:52;;;;;;;4.47;1.83;;;2.10;93.90;;;;;;5018123;28;20156;-76
2021/11/30 10:08:33;;;;;;;2.83;1.45;;;2.20;94.00;;;;;;5018396;28;20037;-75
2021/11/30 10:11:01;;;;;;;2.58;1.45;;;2.10;94.10;;;;;;5019457;28;20427;-77
2021/11/30 10:13:28;;;;;;;3.95;1.70;;;2.10;94.00;;;;;;5019516;28;20026;-76
2021/11/30 10:15:59;;;;;;;3.40;1.85;;;2.10;94.40;;;;;;5016650;28;20033;-75
2021/11/30 10:18:33;;;;;;;4.65;1.58;;;2.10;94.50;;;;;;4999758;28;20444;-76
2021/11/30 10:21:08;;;;;;;3.30;1.70;;;2.00;94.90;;;;;;4998844;28;20424;-75
2021/11/30 10:23:49;;;;;;;5.00;2.08;;;2.00;95.20;;;;;;4998560;28;20033;-76
2021/11/30 10:26:19;;;;;;;5.53;2.20;;;2.00;95.00;;;;;;5016637;28;20048;-76
2021/11/30 10:28:53;;;;;;;5.22;2.10;;;2.00;95.40;;;;;;5018307;28;20057;-76
2021/11/30 10:31:27;;;;;;;5.85;3.30;;;2.10;95.30;;;;;;5016407;28;20034;-75
2021/11/30 10:33:53;;;;;;;6.78;3.00;;;2.10;95.30;;;;;;5010862;28;20319;-76
2021/11/30 10:36:19;;;;;;;6.93;4.32;;;2.00;95.70;;;;;;5002559;28;20041;-75
2021/11/30 10:38:45;;;;;;;5.30;2.47;;;2.00;95.80;;;;;;4997974;28;20046;-76
2021/11/30 10:41:18;;;;;;;4.72;1.83;;;2.00;95.70;;;;;;4999371;28;20054;-76
2021/11/30 10:43:55;;;;;;;5.97;2.35;;;2.00;96.00;;;;;;5019162;28;20505;-76
2021/11/30 10:46:24;;;;;;;4.28;1.90;;;2.10;96.50;;;;;;5018894;28;20028;-76
2021/11/30 10:48:49;;;;;;;4.20;2.30;;;2.00;96.30;;;;;;5017789;28;20109;-76
2021/11/30 10:51:15;;;;;;;3.38;1.95;;;1.90;96.60;;;;;;5018167;28;20101;-76
2021/11/30 10:53:44;;;;;;;8.43;1.75;;;1.90;97.00;;;;;;4996808;28;20054;-76
2021/11/30 10:56:10;;;;;;;3.40;1.90;;;1.90;97.30;;;;;;5001283;28;20054;-76
2021/11/30 10:58:41;;;;;;;9.13;2.10;;;1.80;97.30;;;;;;5018753;28;20362;-76
2021/11/30 11:01:19;;;;;;;7.03;2.83;;;1.80;97.50;;;;;;5007383;28;20022;-76
2021/11/30 11:03:46;;;;;;;4.60;1.98;;;1.90;97.70;;;;;;5005127;28;20112;-76
2021/11/30 11:06:31;;;;;;;4.70;2.20;;;1.90;97.60;;;;;;5018651;28;20458;-76
2021/11/30 11:09:02;;;;;;;3.92;2.03;;;1.90;97.60;;;;;;5016254;28;20523;-76
2021/11/30 11:11:33;;;;;;;4.43;2.10;;;1.80;97.60;;;;;;5018414;28;20068;-76
2021/11/30 11:14:00;;;;;;;3.92;2.13;;;1.90;97.90;;;;;;5010817;28;20023;-76
2021/11/30 11:16:32;;;;;;;4.35;2.13;;;1.90;97.90;;;;;;4997672;28;20026;-76
2021/11/30 11:19:04;;;;;;;4.85;2.20;;;1.90;97.90;;;;;;5014891;28;20034;-76
2021/11/30 11:21:31;;;;;;;5.20;2.10;;;1.80;98.00;;;;;;5018415;28;20101;-76
2021/11/30 11:23:56;;;;;;;4.78;1.80;;;1.70;98.00;;;;;;5009688;28;20343;-76
2021/11/30 11:26:25;;;;;;;4.90;2.10;;;1.70;98.00;;;;;;5005397;28;20038;-75
2021/11/30 11:28:53;;;;;;;6.40;2.47;;;1.80;98.00;;;;;;5016777;28;20116;-76
2021/11/30 11:31:20;;;;;;;4.43;2.15;;;1.80;98.00;;;;;;5016961;28;20026;-76
2021/11/30 11:33:47;;;;;;;8.93;4.00;;;1.70;98.00;;;;;;5016417;28;20366;-76
2021/11/30 11:36:13;;;;;;;4.85;2.38;;;1.70;98.00;;;;;;5016901;28;20034;-76
2021/11/30 11:38:39;;;;;;;6.93;1.70;;;1.70;98.00;;;;;;5016845;28;20033;-76
2021/11/30 11:41:06;;;;;;;4.25;1.92;;;1.80;98.00;;;;;;5017792;28;20326;-76
2021/11/30 11:43:34;;;;;;;3.75;1.67;;;1.80;98.00;;;;;;5016566;28;20052;-76
2021/11/30 11:46:00;;;;;;;3.28;1.70;;;1.80;98.00;;;;;;5017899;28;20018;-76
2021/11/30 11:48:28;;;;;;;5.38;2.00;;;1.90;98.00;;;;;;5017760;28;20025;-77
2021/11/30 11:51:00;;;;;;;3.53;1.92;;;1.90;98.00;;;;;;5017806;28;20083;-77
2021/11/30 11:53:32;;;;;;;3.05;1.80;;;1.80;98.00;;;;;;5014920;28;20030;-76
2021/11/30 11:56:12;;;;;;;5.15;2.10;;;1.90;98.00;;;;;;5015627;28;20030;-76
2021/11/30 11:58:40;;;;;;;6.28;1.92;;;1.90;98.00;;;;;;5017431;28;20026;-76
2021/11/30 12:01:07;;;;;;;3.45;1.88;;;1.90;98.00;;;;;;5016611;28;20486;-76
2021/11/30 12:03:56;;;;;;;3.63;1.83;;;1.90;98.00;;;;;;5016320;28;20395;-76
2021/11/30 12:06:27;;;;;;;4.10;1.85;;;2.00;98.00;;;;;;5015635;28;20034;-75
2021/11/30 12:09:15;;;;;;;4.55;1.80;;;2.00;98.00;;;;;;5008185;28;20030;-74
2021/11/30 12:11:45;;;;;;;5.47;2.33;;;2.00;98.00;;;;;;4997746;28;20031;-75
2021/11/30 12:14:22;;;;;;;3.55;1.60;;;2.10;98.00;;;;;;4996690;28;20026;-74
2021/11/30 12:17:04;;;;;;;3.92;1.60;;;2.10;98.00;;;;;;4997713;28;20026;-74
2021/11/30 12:19:32;;;;;;;5.25;2.40;;;2.00;98.00;;;;;;5009161;28;20053;-76
2021/11/30 12:21:57;;;;;;;4.32;1.85;;;2.00;98.00;;;;;;5017063;28;20025;-76
2021/11/30 12:24:43;;;;;;;2.92;1.60;;;2.00;98.00;;;;;;5016104;28;20029;-76
2021/11/30 12:27:21;;;;;;;3.83;1.65;;;1.90;98.00;;;;;;5015447;28;20030;-76
2021/11/30 12:29:46;;;;;;;3.10;1.70;;;1.90;98.00;;;;;;5016893;28;20026;-76
2021/11/30 12:32:22;;;;;;;4.75;2.40;;;2.00;98.00;;;;;;5012156;28;20376;-76
2021/11/30 12:34:49;;;;;;;3.75;1.65;;;1.90;98.00;;;;;;4997394;28;20041;-76
2021/11/30 12:37:24;;;;;;;4.65;1.92;;;1.90;98.00;;;;;;5012847;28;20300;-76
2021/11/30 12:40:06;;;;;;;5.90;1.90;;;1.90;98.00;;;;;;5014546;28;20032;-76
2021/11/30 12:42:38;;;;;;;3.45;1.83;;;1.90;98.00;;;;;;5015756;28;20423;-75
2021/11/30 12:45:08;;;;;;;4.40;1.85;;;1.90;98.00;;;;;;5015581;28;20048;-76
2021/11/30 12:47:34;;;;;;;4.05;1.92;;;1.90;98.00;;;;;;5014566;28;20034;-75
2021/11/30 12:50:01;;;;;;;5.07;2.08;;;1.80;98.00;;;;;;5016584;28;20296;-75
2021/11/30 12:52:32;;;;;;;3.95;2.15;;;1.80;98.00;;;;;;5015570;28;20029;-76
2021/11/30 12:55:00;;;;;;;4.00;1.90;;;1.70;98.00;;;;;;5002551;28;20057;-76
2021/11/30 12:57:31;;;;;;;4.63;2.30;;;1.70;98.00;;;;;;4995911;28;20069;-76
2021/11/30 13:00:08;;;;;;;4.65;2.17;;;1.70;98.00;;;;;;5012870;28;20034;-76
2021/11/30 13:02:42;;;;;;;4.85;1.92;;;1.80;98.00;;;;;;4995760;28;20109;-76